Boone, CO

6:12 PM MDT on August 02, 2015 (GMT -0600)
21 Miles NE of Airport | | Change Station
CLOSE
Current Station
Personal Weather Station
Location: Pueblo, CO
Elevation: 5000 ft
Nearby Weather Stations

Elev 5000 ft 38.45 °N, 104.34 °W | Updated 3 seconds ago

Partly Cloudy
Partly Cloudy
87.8 °F
Feels Like 84 °F
N
11.0
Wind Variable Wind from East
Gusts 12.0 mph

Today
High -- | Low -- °F
--% Chance of Precip.
Yesterday
High -- | Low -- °F
Precip. -- in
5:59 AM 8:06 PM
Waning Gibbous, 91% visible
Pressure 29.77 in
Visibility 10.0 miles
Clouds Clear
Heat Index 84 °F
Dew Point 40 °F
Humidity 19%
Rainfall 0.00 in
Snow Depth Not available.
UV 2 out of 12
Pollen 6.90 out of 12
Air Quality Not available.
Flu Activity Not available.
METAR KPUB 022353Z AUTO 12010KT 10SM CLR 33/04 A2999 RMK AO2 SLP081 T03330044 10356 20300 56008

More Conditions Fewer Conditions

Pressure 29.77 in
Visibility 10.0 miles
Clouds Clear
Heat Index 84 °F
Dew Point 40 °F
Humidity 19%
Rainfall 0.00 in
Snow Depth Not available.
UV 2 out of 12
Pollen 6.90 out of 12
Air Quality Not available.
Flu Activity Not available.
METAR KPUB 022353Z AUTO 12010KT 10SM CLR 33/04 A2999 RMK AO2 SLP081 T03330044 10356 20300 56008

More Conditions Fewer Conditions

10-Day Weather Forecast

×

Almanac

Astronomy

Aug. 02, 2015 Rise Set
Actual Time
Civil Twilight
Nautical Twilight
Astronomical Twilight
Moon
Length of Visible Light
Length of Day
Tomorrow will be .
, % of the Moon is Illuminated

Today's Extremes

State Highs State Lows

Community

WunderPhotos

Upload Photos

1,843,448 photos uploaded!

WunderBlogs® & News

Nearby

Air Quality

  Air Quality AQ Index Pollutant
Not available.

Snow Depth

Station Depth Elevation

Earthquake Activity

City Distance Mag. Time & Date
Minimum magnitude displayed is 2.5.

Coastal Water Temperatures

Place Temperature

Stations

Nearby Weather Stations

Station Location Temp. Windchill Dew Point Humidity Wind Precip. Elev Updated Type